Hamilton, NY

11:40 AM EST on December 29, 2014 (GMT -0500)
KNYCLARK2 | Change Station
CLOSE
Current Station
Personal Weather Station
Location: Clark Mills, NY
Elevation: 535 ft
Nearby Weather Stations

Elev 535 ft 43.09 °N, 75.37 °W | Updated 2 minutes ago

Overcast
Overcast
32.9 °F
Feels Like 30 °F
N
3.2
Wind Variable Wind from North

Today
High -- | Low -- °F
--% Chance of Precip.
Yesterday
High -- | Low -- °F
Precip. -- in
7:32 AM 4:36 PM
First Quarter, 60% visible
Pressure 30.22 in
Visibility 10.0 miles
Clouds Few 3600 ft
Overcast 5500 ft
Windchill 30 °F
Dew Point 26 °F
Humidity 77%
Rainfall 0.00 in
Snow Depth Not available.
UV 1 out of 12
Pollen .10 out of 12
Air Quality Not available.
Flu Activity Not available.
METAR KRME 291553Z 32009KT 10SM FEW036 OVC055 M01/M07 A3020 RMK AO2 SLP232 T10061067

More Conditions Fewer Conditions

Pressure 30.22 in
Visibility 10.0 miles
Clouds Few 3600 ft
Overcast 5500 ft
Windchill 30 °F
Dew Point 26 °F
Humidity 77%
Rainfall 0.00 in
Snow Depth Not available.
UV 1 out of 12
Pollen .10 out of 12
Air Quality Not available.
Flu Activity Not available.
METAR KRME 291553Z 32009KT 10SM FEW036 OVC055 M01/M07 A3020 RMK AO2 SLP232 T10061067

More Conditions Fewer Conditions

10-Day Weather Forecast

Almanac

Astronomy

Dec. 29, 2014 Rise Set
Actual Time
Civil Twilight
Nautical Twilight
Astronomical Twilight
Moon
Length of Visible Light
Length of Day
Tomorrow will be .
, % of the Moon is Illuminated

Today's Extremes

State Highs State Lows

Community

WunderPhotos

Upload Photos

1,781,648 photos uploaded!

WunderBlogs® & News

Nearby

Air Quality

  Air Quality AQ Index Pollutant
Not available.

Snow Depth

Station Depth Elevation

Earthquake Activity

City Distance Mag. Time & Date
Minimum magnitude displayed is 2.5.

Coastal Water Temperatures

Place Temperature

Nearby Weather Stations